Pagina principală
METAR-TAF:

METAR-TAF

Aeroporturi :

Council Bluffs, Iowa, Statele Unite ale Americii

Latitudine: 41-16N, longitudine: 095-46W, elevație: 382 m

Observații meteo curente

Raportul a fost făcut în urmă cu 28 de minute, la 15:55 UTC
Vânt 11 kt de la Nord-vest cu rafale de până la 19 kt
Temperatură 23°C
Umiditate 50%
Presiune 1019 hPa
Vizibilitate: 16.1 km
Cer senin

METAR: KCBF 281555Z AUTO 31011G19KT 10SM CLR 23/12 A3009 RMK AO2

Ora: 11:23 (16:23 UTC)


TAF: lipsă

Observații și prognoze meteo pentru peste 4.000 de aeroporturi (rapoarte METAR și TAF).

Stațiile disponibile sunt reprezentate pe hartă prin puncte galbene și roșii.

Țineți indicatorul mouse-ului pe punctul dorit pentru a vedea denumirea stației.

Apoi, faceți clic pentru a vedea observațiile și prognozele meteorologice.

Pentru a schimba harta: Pentru mărire, faceți clic pe butoanele verzi cu cruce neagră; pentru micșorare, pe butonul verde cu o liniuță; pentru hărți învecinate, pe săgețile verzi.


METAR-TAF: